sensor_id;sensor_type;location;lat;lon;timestamp;pressure;altitude;pressure_sealevel;temperature;humidity
62025;BME280;47978;49.118;12.146;2023-01-29T00:02:45;98539.59;;;-0.32;75.07
62025;BME280;47978;49.118;12.146;2023-01-29T00:06:46;98532.94;;;-0.36;75.24
62025;BME280;47978;49.118;12.146;2023-01-29T00:10:49;98542.34;;;-0.25;75.01
62025;BME280;47978;49.118;12.146;2023-01-29T00:14:50;98536.25;;;-0.40;74.69
62025;BME280;47978;49.118;12.146;2023-01-29T00:18:52;98530.84;;;-0.54;76.34
62025;BME280;47978;49.118;12.146;2023-01-29T00:22:53;98529.56;;;-0.38;75.61
62025;BME280;47978;49.118;12.146;2023-01-29T00:26:56;98536.25;;;-0.20;74.74
62025;BME280;47978;49.118;12.146;2023-01-29T00:30:58;98546.31;;;-0.28;74.64
62025;BME280;47978;49.118;12.146;2023-01-29T00:34:59;98538.34;;;-0.36;74.63
62025;BME280;47978;49.118;12.146;2023-01-29T00:39:01;98542.34;;;-0.38;74.92
62025;BME280;47978;49.118;12.146;2023-01-29T00:43:04;98540.44;;;-0.38;75.40
62025;BME280;47978;49.118;12.146;2023-01-29T00:47:06;98538.34;;;-0.29;74.33
62025;BME280;47978;49.118;12.146;2023-01-29T00:51:07;98534.59;;;-0.35;75.92
62025;BME280;47978;49.118;12.146;2023-01-29T00:55:09;98530.44;;;-0.51;76.25
62025;BME280;47978;49.118;12.146;2023-01-29T00:59:12;98522.50;;;-0.46;75.91
62025;BME280;47978;49.118;12.146;2023-01-29T01:03:14;98524.38;;;-0.53;74.98
62025;BME280;47978;49.118;12.146;2023-01-29T01:07:16;98526.88;;;-0.58;75.42
62025;BME280;47978;49.118;12.146;2023-01-29T01:11:17;98523.31;;;-0.58;75.97
62025;BME280;47978;49.118;12.146;2023-01-29T01:15:21;98526.66;;;-0.56;75.08
62025;BME280;47978;49.118;12.146;2023-01-29T01:19:22;98515.59;;;-0.61;76.16
62025;BME280;47978;49.118;12.146;2023-01-29T01:23:24;98526.03;;;-0.58;75.79
62025;BME280;47978;49.118;12.146;2023-01-29T01:27:25;98512.03;;;-0.55;74.96
62025;BME280;47978;49.118;12.146;2023-01-29T01:31:28;98519.16;;;-0.48;75.53
62025;BME280;47978;49.118;12.146;2023-01-29T01:35:30;98523.72;;;-0.55;74.29
62025;BME280;47978;49.118;12.146;2023-01-29T01:39:31;98511.41;;;-0.64;75.35
62025;BME280;47978;49.118;12.146;2023-01-29T01:43:45;98507.44;;;-0.75;76.18
62025;BME280;47978;49.118;12.146;2023-01-29T01:47:49;98504.09;;;-0.70;75.63
62025;BME280;47978;49.118;12.146;2023-01-29T01:51:51;98490.31;;;-0.42;73.49
62025;BME280;47978;49.118;12.146;2023-01-29T01:55:54;98495.13;;;-0.64;74.20
62025;BME280;47978;49.118;12.146;2023-01-29T01:59:58;98494.91;;;-0.69;74.52
62025;BME280;47978;49.118;12.146;2023-01-29T02:04:04;98488.66;;;-0.76;74.83
62025;BME280;47978;49.118;12.146;2023-01-29T02:08:07;98504.09;;;-0.63;73.99
62025;BME280;47978;49.118;12.146;2023-01-29T02:12:10;98488.84;;;-0.58;73.65
62025;BME280;47978;49.118;12.146;2023-01-29T02:16:12;98494.91;;;-0.76;74.45
62025;BME280;47978;49.118;12.146;2023-01-29T02:20:17;98503.06;;;-0.76;74.60
62025;BME280;47978;49.118;12.146;2023-01-29T02:28:42;98509.94;;;-0.73;74.38
62025;BME280;47978;49.118;12.146;2023-01-29T02:32:48;98509.72;;;-0.72;74.76
62025;BME280;47978;49.118;12.146;2023-01-29T02:36:54;98508.50;;;-0.62;73.71
62025;BME280;47978;49.118;12.146;2023-01-29T02:41:01;98510.97;;;-0.74;74.48
62025;BME280;47978;49.118;12.146;2023-01-29T02:45:07;98497.84;;;-0.71;73.41
62025;BME280;47978;49.118;12.146;2023-01-29T02:49:12;98502.66;;;-0.59;72.77
62025;BME280;47978;49.118;12.146;2023-01-29T02:53:20;98509.53;;;-0.57;73.71
62025;BME280;47978;49.118;12.146;2023-01-29T02:57:25;98501.59;;;-0.58;73.40
62025;BME280;47978;49.118;12.146;2023-01-29T03:01:32;98508.25;;;-0.54;72.29
62025;BME280;47978;49.118;12.146;2023-01-29T03:05:38;98502.81;;;-0.74;73.11
62025;BME280;47978;49.118;12.146;2023-01-29T03:09:43;98492.38;;;-0.77;73.17
62025;BME280;47978;49.118;12.146;2023-01-29T03:13:47;98492.59;;;-0.52;73.03
62025;BME280;47978;49.118;12.146;2023-01-29T03:17:53;98491.56;;;-0.64;73.13
62025;BME280;47978;49.118;12.146;2023-01-29T03:21:57;98495.31;;;-0.72;74.01
62025;BME280;47978;49.118;12.146;2023-01-29T03:26:00;98503.25;;;-0.84;74.15
62025;BME280;47978;49.118;12.146;2023-01-29T03:30:02;98498.88;;;-0.78;74.10
62025;BME280;47978;49.118;12.146;2023-01-29T03:34:07;98504.91;;;-0.83;74.85
62025;BME280;47978;49.118;12.146;2023-01-29T03:38:10;98507.66;;;-0.76;73.05
62025;BME280;47978;49.118;12.146;2023-01-29T03:42:13;98517.03;;;-0.72;72.34
62025;BME280;47978;49.118;12.146;2023-01-29T03:46:19;98520.78;;;-0.80;73.72
62025;BME280;47978;49.118;12.146;2023-01-29T03:50:30;98522.44;;;-0.85;74.25
62025;BME280;47978;49.118;12.146;2023-01-29T03:54:35;98522.06;;;-0.76;74.12
62025;BME280;47978;49.118;12.146;2023-01-29T03:58:41;98522.91;;;-0.75;73.31
62025;BME280;47978;49.118;12.146;2023-01-29T04:02:46;98529.97;;;-0.94;74.76
62025;BME280;47978;49.118;12.146;2023-01-29T04:06:50;98525.38;;;-0.80;73.68
62025;BME280;47978;49.118;12.146;2023-01-29T04:10:53;98520.59;;;-0.78;74.57
62025;BME280;47978;49.118;12.146;2023-01-29T04:14:56;98517.88;;;-0.72;74.40
62025;BME280;47978;49.118;12.146;2023-01-29T04:18:59;98513.31;;;-0.71;72.84
62025;BME280;47978;49.118;12.146;2023-01-29T04:23:04;98526.44;;;-0.88;74.31
62025;BME280;47978;49.118;12.146;2023-01-29T04:27:10;98523.72;;;-0.88;74.52
62025;BME280;47978;49.118;12.146;2023-01-29T04:31:15;98528.72;;;-0.92;75.25
62025;BME280;47978;49.118;12.146;2023-01-29T04:35:20;98527.50;;;-0.69;74.40
62025;BME280;47978;49.118;12.146;2023-01-29T04:39:30;98519.78;;;-0.59;73.83
62025;BME280;47978;49.118;12.146;2023-01-29T04:43:34;98525.84;;;-0.77;71.90
62025;BME280;47978;49.118;12.146;2023-01-29T04:47:40;98528.94;;;-0.93;73.65
62025;BME280;47978;49.118;12.146;2023-01-29T04:51:48;98524.56;;;-0.74;72.53
62025;BME280;47978;49.118;12.146;2023-01-29T04:55:53;98525.63;;;-0.82;73.25
62025;BME280;47978;49.118;12.146;2023-01-29T04:59:58;98510.78;;;-0.79;73.65
62025;BME280;47978;49.118;12.146;2023-01-29T05:04:03;98507.44;;;-0.88;73.72
62025;BME280;47978;49.118;12.146;2023-01-29T05:08:08;98513.28;;;-0.78;73.09
62025;BME280;47978;49.118;12.146;2023-01-29T05:12:13;98510.78;;;-0.79;72.64
62025;BME280;47978;49.118;12.146;2023-01-29T05:16:17;98495.72;;;-0.95;73.53
62025;BME280;47978;49.118;12.146;2023-01-29T05:20:20;98500.13;;;-0.81;73.89
62025;BME280;47978;49.118;12.146;2023-01-29T05:24:22;98500.31;;;-0.89;73.77
62025;BME280;47978;49.118;12.146;2023-01-29T05:28:25;98502.84;;;-0.87;72.37
62025;BME280;47978;49.118;12.146;2023-01-29T05:32:27;98500.75;;;-0.72;71.30
62025;BME280;47978;49.118;12.146;2023-01-29T05:36:28;98498.03;;;-0.92;72.51
62025;BME280;47978;49.118;12.146;2023-01-29T05:40:30;98497.81;;;-0.97;71.44
62025;BME280;47978;49.118;12.146;2023-01-29T05:44:33;98504.09;;;-0.97;72.01
62025;BME280;47978;49.118;12.146;2023-01-29T05:48:34;98517.66;;;-0.83;71.56
62025;BME280;47978;49.118;12.146;2023-01-29T05:52:36;98518.06;;;-1.06;71.87
62025;BME280;47978;49.118;12.146;2023-01-29T05:56:37;98526.41;;;-1.01;72.35
62025;BME280;47978;49.118;12.146;2023-01-29T06:00:40;98512.44;;;-1.05;72.20
62025;BME280;47978;49.118;12.146;2023-01-29T06:04:42;98501.53;;;-1.11;71.62
62025;BME280;47978;49.118;12.146;2023-01-29T06:08:44;98493.03;;;-1.02;72.12
62025;BME280;47978;49.118;12.146;2023-01-29T06:12:45;98484.66;;;-1.07;72.73
62025;BME280;47978;49.118;12.146;2023-01-29T06:16:48;98472.75;;;-0.93;72.27
62025;BME280;47978;49.118;12.146;2023-01-29T06:20:50;98472.13;;;-1.08;72.17
62025;BME280;47978;49.118;12.146;2023-01-29T06:24:51;98476.09;;;-1.04;71.70
62025;BME280;47978;49.118;12.146;2023-01-29T06:28:53;98462.69;;;-1.25;71.79
62025;BME280;47978;49.118;12.146;2023-01-29T06:32:56;98462.31;;;-1.16;71.83
62025;BME280;47978;49.118;12.146;2023-01-29T06:36:58;98460.41;;;-1.08;72.67
62025;BME280;47978;49.118;12.146;2023-01-29T06:41:06;98468.16;;;-1.05;71.83
62025;BME280;47978;49.118;12.146;2023-01-29T06:45:09;98467.75;;;-1.22;72.61
62025;BME280;47978;49.118;12.146;2023-01-29T06:49:12;98475.00;;;-1.29;72.59
62025;BME280;47978;49.118;12.146;2023-01-29T06:53:13;98488.53;;;-1.43;72.53
62025;BME280;47978;49.118;12.146;2023-01-29T06:57:15;98492.28;;;-1.50;73.31
62025;BME280;47978;49.118;12.146;2023-01-29T07:01:17;98497.78;;;-1.30;72.87
62025;BME280;47978;49.118;12.146;2023-01-29T07:05:37;98499.66;;;-1.31;72.62
62025;BME280;47978;49.118;12.146;2023-01-29T07:09:39;98510.47;;;-1.38;72.27
62025;BME280;47978;49.118;12.146;2023-01-29T07:13:41;98506.31;;;-1.27;71.63
62025;BME280;47978;49.118;12.146;2023-01-29T07:17:42;98519.03;;;-1.34;72.01
62025;BME280;47978;49.118;12.146;2023-01-29T07:21:45;98517.38;;;-1.35;72.50
62025;BME280;47978;49.118;12.146;2023-01-29T07:25:46;98509.41;;;-1.50;72.61
62025;BME280;47978;49.118;12.146;2023-01-29T07:29:48;98506.25;;;-1.53;73.13
62025;BME280;47978;49.118;12.146;2023-01-29T07:33:49;98503.97;;;-1.50;73.50
62025;BME280;47978;49.118;12.146;2023-01-29T07:37:52;98507.56;;;-1.29;72.91
62025;BME280;47978;49.118;12.146;2023-01-29T07:41:53;98518.06;;;-1.13;73.05
62025;BME280;47978;49.118;12.146;2023-01-29T07:45:55;98512.44;;;-1.05;71.68
62025;BME280;47978;49.118;12.146;2023-01-29T07:49:56;98519.91;;;-1.20;71.90
62025;BME280;47978;49.118;12.146;2023-01-29T07:53:59;98523.03;;;-1.23;72.18
62025;BME280;47978;49.118;12.146;2023-01-29T07:58:01;98532.88;;;-1.09;72.50
62025;BME280;47978;49.118;12.146;2023-01-29T08:02:03;98521.63;;;-0.99;71.14
62025;BME280;47978;49.118;12.146;2023-01-29T08:06:05;98535.63;;;-0.89;71.04
62025;BME280;47978;49.118;12.146;2023-01-29T08:10:08;98561.06;;;-1.03;71.07
62025;BME280;47978;49.118;12.146;2023-01-29T08:14:10;98570.50;;;-0.99;72.58
62025;BME280;47978;49.118;12.146;2023-01-29T08:18:12;98570.44;;;-1.06;71.28
62025;BME280;47978;49.118;12.146;2023-01-29T08:22:14;98574.81;;;-1.11;71.02
62025;BME280;47978;49.118;12.146;2023-01-29T08:26:17;98557.34;;;-0.89;70.78
62025;BME280;47978;49.118;12.146;2023-01-29T08:30:18;98551.28;;;-0.84;70.76
62025;BME280;47978;49.118;12.146;2023-01-29T08:34:20;98568.00;;;-0.74;70.50
62025;BME280;47978;49.118;12.146;2023-01-29T08:38:21;98574.06;;;-0.79;70.00
62025;BME280;47978;49.118;12.146;2023-01-29T08:42:24;98573.25;;;-0.59;70.12
62025;BME280;47978;49.118;12.146;2023-01-29T08:46:26;98573.88;;;-0.64;69.94
62025;BME280;47978;49.118;12.146;2023-01-29T08:50:27;98577.84;;;-0.60;68.36
62025;BME280;47978;49.118;12.146;2023-01-29T08:54:28;98597.25;;;-0.70;68.89
62025;BME280;47978;49.118;12.146;2023-01-29T08:58:31;98607.72;;;-0.66;69.24
62025;BME280;47978;49.118;12.146;2023-01-29T09:02:33;98608.31;;;-0.78;69.76
62025;BME280;47978;49.118;12.146;2023-01-29T09:06:35;98607.25;;;-0.97;70.03
62025;BME280;47978;49.118;12.146;2023-01-29T09:10:36;98608.50;;;-0.86;69.56
62025;BME280;47978;49.118;12.146;2023-01-29T09:14:39;98598.47;;;-0.85;69.78
62025;BME280;47978;49.118;12.146;2023-01-29T09:18:40;98597.88;;;-0.81;70.63
62025;BME280;47978;49.118;12.146;2023-01-29T09:22:42;98595.19;;;-0.68;69.58
62025;BME280;47978;49.118;12.146;2023-01-29T09:26:44;98586.00;;;-0.66;69.78
62025;BME280;47978;49.118;12.146;2023-01-29T09:30:47;98590.59;;;-0.47;69.67
62025;BME280;47978;49.118;12.146;2023-01-29T09:34:49;98601.47;;;-0.27;67.96
62025;BME280;47978;49.118;12.146;2023-01-29T09:38:50;98592.28;;;-0.33;68.34
62025;BME280;47978;49.118;12.146;2023-01-29T09:42:54;98584.75;;;-0.17;67.26
62025;BME280;47978;49.118;12.146;2023-01-29T09:46:59;98579.75;;;-0.27;67.69
62025;BME280;47978;49.118;12.146;2023-01-29T09:51:03;98569.69;;;-0.40;68.66
62025;BME280;47978;49.118;12.146;2023-01-29T09:55:09;98568.03;;;-0.28;67.76
62025;BME280;47978;49.118;12.146;2023-01-29T09:59:13;98562.16;;;-0.05;67.47
62025;BME280;47978;49.118;12.146;2023-01-29T10:03:26;98560.06;;;-0.03;66.42
62025;BME280;47978;49.118;12.146;2023-01-29T10:11:52;98547.88;;;0.27;66.14
62025;BME280;47978;49.118;12.146;2023-01-29T10:16:05;98552.66;;;0.38;66.49
62025;BME280;47978;49.118;12.146;2023-01-29T10:20:12;98554.50;;;0.44;64.90
62025;BME280;47978;49.118;12.146;2023-01-29T10:24:21;98549.94;;;0.38;65.74
62025;BME280;47978;49.118;12.146;2023-01-29T10:28:25;98547.56;;;0.55;64.89
62025;BME280;47978;49.118;12.146;2023-01-29T10:32:28;98555.72;;;0.55;65.55
62025;BME280;47978;49.118;12.146;2023-01-29T10:36:33;98544.28;;;0.33;65.74
62025;BME280;47978;49.118;12.146;2023-01-29T10:40:37;98532.19;;;0.29;66.66
62025;BME280;47978;49.118;12.146;2023-01-29T10:44:45;98532.34;;;0.34;66.37
62025;BME280;47978;49.118;12.146;2023-01-29T10:48:54;98532.09;;;0.49;65.73
62025;BME280;47978;49.118;12.146;2023-01-29T10:53:05;98518.53;;;0.35;66.60
62025;BME280;47978;49.118;12.146;2023-01-29T10:57:11;98513.06;;;0.42;66.34
62025;BME280;47978;49.118;12.146;2023-01-29T11:01:15;98497.56;;;0.49;64.99
62025;BME280;47978;49.118;12.146;2023-01-29T11:05:18;98493.69;;;0.70;65.57
62025;BME280;47978;49.118;12.146;2023-01-29T11:09:25;98495.94;;;1.11;63.34
62025;BME280;47978;49.118;12.146;2023-01-29T11:13:29;98502.88;;;1.07;64.18
62025;BME280;47978;49.118;12.146;2023-01-29T11:17:32;98492.41;;;1.04;62.84
62025;BME280;47978;49.118;12.146;2023-01-29T11:21:48;98494.25;;;0.79;63.40
62025;BME280;47978;49.118;12.146;2023-01-29T11:25:52;98496.34;;;0.77;64.53
62025;BME280;47978;49.118;12.146;2023-01-29T11:29:54;98498.66;;;0.80;64.83
62025;BME280;47978;49.118;12.146;2023-01-29T11:34:00;98478.97;;;0.78;63.92
62025;BME280;47978;49.118;12.146;2023-01-29T11:38:07;98468.66;;;0.48;65.89
62025;BME280;47978;49.118;12.146;2023-01-29T11:42:17;98454.41;;;0.53;65.46
62025;BME280;47978;49.118;12.146;2023-01-29T11:46:19;98453.91;;;0.69;65.09
62025;BME280;47978;49.118;12.146;2023-01-29T11:50:22;98451.13;;;0.76;64.51
62025;BME280;47978;49.118;12.146;2023-01-29T11:54:26;98434.03;;;0.94;64.58
62025;BME280;47978;49.118;12.146;2023-01-29T11:58:30;98430.59;;;1.05;63.97
62025;BME280;47978;49.118;12.146;2023-01-29T12:02:33;98419.16;;;0.96;63.99
62025;BME280;47978;49.118;12.146;2023-01-29T12:06:36;98420.50;;;1.12;64.85
62025;BME280;47978;49.118;12.146;2023-01-29T12:10:42;98410.22;;;1.14;63.48
62025;BME280;47978;49.118;12.146;2023-01-29T12:14:45;98396.00;;;1.12;63.61
62025;BME280;47978;49.118;12.146;2023-01-29T12:18:48;98394.19;;;1.24;64.15
62025;BME280;47978;49.118;12.146;2023-01-29T12:22:52;98384.47;;;1.53;62.36
62025;BME280;47978;49.118;12.146;2023-01-29T12:27:00;98394.63;;;1.46;62.04
62025;BME280;47978;49.118;12.146;2023-01-29T12:31:10;98391.72;;;1.41;63.08
62025;BME280;47978;49.118;12.146;2023-01-29T12:35:17;98388.91;;;1.29;63.53
62025;BME280;47978;49.118;12.146;2023-01-29T12:39:20;98388.72;;;1.31;63.59
62025;BME280;47978;49.118;12.146;2023-01-29T12:43:23;98378.22;;;1.09;63.28
62025;BME280;47978;49.118;12.146;2023-01-29T12:47:30;98370.91;;;1.28;63.77
62025;BME280;47978;49.118;12.146;2023-01-29T12:51:35;98368.84;;;1.24;64.30
62025;BME280;47978;49.118;12.146;2023-01-29T12:55:40;98357.66;;;1.32;63.39
62025;BME280;47978;49.118;12.146;2023-01-29T12:59:43;98351.97;;;1.33;63.49
62025;BME280;47978;49.118;12.146;2023-01-29T13:03:50;98346.03;;;1.43;63.69
62025;BME280;47978;49.118;12.146;2023-01-29T13:07:55;98353.25;;;1.12;63.70
62025;BME280;47978;49.118;12.146;2023-01-29T13:11:59;98353.41;;;1.18;63.97
62025;BME280;47978;49.118;12.146;2023-01-29T13:16:05;98355.81;;;1.07;63.65
62025;BME280;47978;49.118;12.146;2023-01-29T13:20:11;98344.88;;;1.14;63.91
62025;BME280;47978;49.118;12.146;2023-01-29T13:24:14;98344.09;;;1.07;64.50
62025;BME280;47978;49.118;12.146;2023-01-29T13:28:16;98326.88;;;1.31;63.88
62025;BME280;47978;49.118;12.146;2023-01-29T13:32:19;98336.91;;;1.12;64.00
62025;BME280;47978;49.118;12.146;2023-01-29T13:36:24;98334.44;;;1.29;64.34
62025;BME280;47978;49.118;12.146;2023-01-29T13:40:27;98343.22;;;1.31;62.91
62025;BME280;47978;49.118;12.146;2023-01-29T13:44:31;98348.63;;;1.13;63.84
62025;BME280;47978;49.118;12.146;2023-01-29T13:48:34;98351.34;;;1.13;64.47
62025;BME280;47978;49.118;12.146;2023-01-29T13:52:43;98359.16;;;1.09;64.23
62025;BME280;47978;49.118;12.146;2023-01-29T13:56:55;98362.88;;;1.15;64.06
62025;BME280;47978;49.118;12.146;2023-01-29T14:00:57;98348.69;;;1.06;63.85
62025;BME280;47978;49.118;12.146;2023-01-29T14:09:32;98336.09;;;0.87;65.65
62025;BME280;47978;49.118;12.146;2023-01-29T14:13:34;98322.94;;;0.84;64.73
62025;BME280;47978;49.118;12.146;2023-01-29T14:17:36;98318.09;;;0.86;65.33
62025;BME280;47978;49.118;12.146;2023-01-29T14:21:38;98309.03;;;0.92;64.82
62025;BME280;47978;49.118;12.146;2023-01-29T14:25:42;98317.97;;;0.99;65.06
62025;BME280;47978;49.118;12.146;2023-01-29T14:29:43;98305.78;;;0.83;65.02
62025;BME280;47978;49.118;12.146;2023-01-29T14:33:45;98305.22;;;0.75;65.64
62025;BME280;47978;49.118;12.146;2023-01-29T14:37:47;98319.81;;;0.55;65.56
62025;BME280;47978;49.118;12.146;2023-01-29T14:41:51;98313.66;;;0.66;66.18
62025;BME280;47978;49.118;12.146;2023-01-29T14:45:53;98322.88;;;0.65;66.13
62025;BME280;47978;49.118;12.146;2023-01-29T14:49:55;98303.53;;;0.74;66.49
62025;BME280;47978;49.118;12.146;2023-01-29T14:53:57;98302.03;;;0.78;66.41
62025;BME280;47978;49.118;12.146;2023-01-29T14:58:03;98296.66;;;0.71;66.26
62025;BME280;47978;49.118;12.146;2023-01-29T15:02:11;98287.06;;;0.69;66.85
62025;BME280;47978;49.118;12.146;2023-01-29T15:06:15;98295.34;;;0.55;66.81
62025;BME280;47978;49.118;12.146;2023-01-29T15:10:19;98291.25;;;0.39;67.10
62025;BME280;47978;49.118;12.146;2023-01-29T15:14:28;98309.28;;;0.34;67.61
62025;BME280;47978;49.118;12.146;2023-01-29T15:18:32;98296.97;;;0.31;67.91
62025;BME280;47978;49.118;12.146;2023-01-29T15:22:41;98294.09;;;0.26;68.50
62025;BME280;47978;49.118;12.146;2023-01-29T15:26:43;98290.25;;;0.34;68.81
62025;BME280;47978;49.118;12.146;2023-01-29T15:30:46;98294.56;;;0.16;69.11
62025;BME280;47978;49.118;12.146;2023-01-29T15:34:52;98298.41;;;0.02;68.44
62025;BME280;47978;49.118;12.146;2023-01-29T15:39:06;98295.94;;;0.01;69.51
62025;BME280;47978;49.118;12.146;2023-01-29T15:43:17;98288.59;;;0.01;69.35
62025;BME280;47978;49.118;12.146;2023-01-29T15:47:21;98292.41;;;-0.07;70.00
62025;BME280;47978;49.118;12.146;2023-01-29T15:51:24;98281.16;;;-0.10;70.31
62025;BME280;47978;49.118;12.146;2023-01-29T15:55:27;98280.81;;;-0.27;70.51
62025;BME280;47978;49.118;12.146;2023-01-29T15:59:31;98282.72;;;-0.28;70.41
62025;BME280;47978;49.118;12.146;2023-01-29T16:03:36;98291.69;;;-0.27;71.32
62025;BME280;47978;49.118;12.146;2023-01-29T16:07:37;98294.59;;;-0.29;71.58
62025;BME280;47978;49.118;12.146;2023-01-29T16:11:39;98281.78;;;-0.60;72.93
62025;BME280;47978;49.118;12.146;2023-01-29T16:15:52;98285.53;;;-0.48;72.81
62025;BME280;47978;49.118;12.146;2023-01-29T16:19:56;98265.09;;;-0.57;73.50
62025;BME280;47978;49.118;12.146;2023-01-29T16:23:58;98277.19;;;-0.53;73.19
62025;BME280;47978;49.118;12.146;2023-01-29T16:28:02;98277.22;;;-0.59;73.78
62025;BME280;47978;49.118;12.146;2023-01-29T16:32:04;98279.09;;;-0.66;74.54
62025;BME280;47978;49.118;12.146;2023-01-29T16:36:09;98274.41;;;-0.91;75.42
62025;BME280;47978;49.118;12.146;2023-01-29T16:40:15;98282.34;;;-0.96;76.08
62025;BME280;47978;49.118;12.146;2023-01-29T16:44:29;98288.34;;;-0.81;76.01
62025;BME280;47978;49.118;12.146;2023-01-29T16:48:32;98287.34;;;-1.00;76.16
62025;BME280;47978;49.118;12.146;2023-01-29T16:52:35;98288.63;;;-1.09;76.31
62025;BME280;47978;49.118;12.146;2023-01-29T16:56:37;98290.72;;;-1.11;76.64
62025;BME280;47978;49.118;12.146;2023-01-29T17:00:41;98292.22;;;-1.22;77.33
62025;BME280;47978;49.118;12.146;2023-01-29T17:04:44;98281.16;;;-1.27;77.61
62025;BME280;47978;49.118;12.146;2023-01-29T17:08:47;98290.94;;;-1.13;78.06
62025;BME280;47978;49.118;12.146;2023-01-29T17:12:52;98280.28;;;-1.21;77.37
62025;BME280;47978;49.118;12.146;2023-01-29T17:16:55;98289.91;;;-1.18;77.72
62025;BME280;47978;49.118;12.146;2023-01-29T17:20:57;98293.22;;;-1.09;77.83
62025;BME280;47978;49.118;12.146;2023-01-29T17:25:00;98293.66;;;-1.26;77.58
62025;BME280;47978;49.118;12.146;2023-01-29T17:29:01;98298.06;;;-1.25;77.68
62025;BME280;47978;49.118;12.146;2023-01-29T17:33:08;98310.34;;;-1.29;78.18
62025;BME280;47978;49.118;12.146;2023-01-29T17:37:11;98300.97;;;-1.33;79.01
62025;BME280;47978;49.118;12.146;2023-01-29T17:41:17;98300.34;;;-1.35;78.80
62025;BME280;47978;49.118;12.146;2023-01-29T17:45:20;98294.31;;;-1.30;78.67
62025;BME280;47978;49.118;12.146;2023-01-29T17:49:22;98288.22;;;-1.26;78.97
62025;BME280;47978;49.118;12.146;2023-01-29T17:53:24;98289.31;;;-1.33;78.60
62025;BME280;47978;49.118;12.146;2023-01-29T17:57:38;98297.88;;;-1.37;78.65
62025;BME280;47978;49.118;12.146;2023-01-29T18:01:39;98296.19;;;-1.44;79.11
62025;BME280;47978;49.118;12.146;2023-01-29T18:05:41;98295.97;;;-1.56;79.50
62025;BME280;47978;49.118;12.146;2023-01-29T18:09:43;98298.47;;;-1.61;79.83
62025;BME280;47978;49.118;12.146;2023-01-29T18:13:46;98287.00;;;-1.76;80.31
62025;BME280;47978;49.118;12.146;2023-01-29T18:17:47;98274.91;;;-1.87;80.62
62025;BME280;47978;49.118;12.146;2023-01-29T18:21:49;98277.41;;;-1.92;80.47
62025;BME280;47978;49.118;12.146;2023-01-29T18:25:51;98275.09;;;-2.02;80.54
62025;BME280;47978;49.118;12.146;2023-01-29T18:29:54;98266.34;;;-2.04;80.66
62025;BME280;47978;49.118;12.146;2023-01-29T18:33:55;98273.22;;;-1.95;80.85
62025;BME280;47978;49.118;12.146;2023-01-29T18:37:57;98265.91;;;-2.08;81.01
62025;BME280;47978;49.118;12.146;2023-01-29T18:41:58;98272.78;;;-2.12;81.17
62025;BME280;47978;49.118;12.146;2023-01-29T18:46:01;98272.38;;;-1.95;80.45
62025;BME280;47978;49.118;12.146;2023-01-29T18:50:03;98263.41;;;-1.83;79.48
62025;BME280;47978;49.118;12.146;2023-01-29T18:54:05;98270.72;;;-1.90;80.09
62025;BME280;47978;49.118;12.146;2023-01-29T18:58:06;98267.78;;;-1.88;79.91
62025;BME280;47978;49.118;12.146;2023-01-29T19:02:29;98266.34;;;-1.97;80.22
62025;BME280;47978;49.118;12.146;2023-01-29T19:06:31;98262.53;;;-2.16;80.49
62025;BME280;47978;49.118;12.146;2023-01-29T19:10:33;98272.78;;;-2.18;80.55
62025;BME280;47978;49.118;12.146;2023-01-29T19:14:34;98275.66;;;-2.20;80.40
62025;BME280;47978;49.118;12.146;2023-01-29T19:18:37;98266.44;;;-2.45;81.91
62025;BME280;47978;49.118;12.146;2023-01-29T19:22:39;98267.69;;;-2.48;82.21
62025;BME280;47978;49.118;12.146;2023-01-29T19:26:41;98267.66;;;-2.55;82.33
62025;BME280;47978;49.118;12.146;2023-01-29T19:30:42;98261.88;;;-2.38;81.98
62025;BME280;47978;49.118;12.146;2023-01-29T19:34:45;98272.31;;;-2.42;82.14
62025;BME280;47978;49.118;12.146;2023-01-29T19:38:47;98272.94;;;-2.33;82.01
62025;BME280;47978;49.118;12.146;2023-01-29T19:42:51;98271.66;;;-2.37;82.67
62025;BME280;47978;49.118;12.146;2023-01-29T19:46:53;98272.97;;;-2.20;82.29
62025;BME280;47978;49.118;12.146;2023-01-29T19:50:57;98286.50;;;-2.20;82.11
62025;BME280;47978;49.118;12.146;2023-01-29T19:54:59;98270.91;;;-2.11;81.92
62025;BME280;47978;49.118;12.146;2023-01-29T19:59:00;98260.72;;;-1.89;81.57
62025;BME280;47978;49.118;12.146;2023-01-29T20:03:02;98264.91;;;-1.93;81.55
62025;BME280;47978;49.118;12.146;2023-01-29T20:07:05;98271.16;;;-1.73;81.75
62025;BME280;47978;49.118;12.146;2023-01-29T20:11:06;98266.56;;;-1.79;82.23
62025;BME280;47978;49.118;12.146;2023-01-29T20:15:08;98262.78;;;-1.51;81.69
62025;BME280;47978;49.118;12.146;2023-01-29T20:19:10;98264.47;;;-1.30;80.68
62025;BME280;47978;49.118;12.146;2023-01-29T20:23:16;98263.63;;;-1.31;80.50
62025;BME280;47978;49.118;12.146;2023-01-29T20:27:35;98262.31;;;-1.08;79.90
62025;BME280;47978;49.118;12.146;2023-01-29T20:31:37;98263.53;;;-0.91;78.97
62025;BME280;47978;49.118;12.146;2023-01-29T20:35:38;98243.09;;;-1.00;78.71
62025;BME280;47978;49.118;12.146;2023-01-29T20:39:41;98243.50;;;-1.03;79.02
62025;BME280;47978;49.118;12.146;2023-01-29T20:43:43;98241.00;;;-0.98;78.87
62025;BME280;47978;49.118;12.146;2023-01-29T20:47:45;98232.03;;;-1.05;79.32
62025;BME280;47978;49.118;12.146;2023-01-29T20:51:46;98225.22;;;-1.34;80.38
62025;BME280;47978;49.118;12.146;2023-01-29T20:55:49;98222.53;;;-1.41;80.52
62025;BME280;47978;49.118;12.146;2023-01-29T20:59:51;98217.72;;;-1.46;80.51
62025;BME280;47978;49.118;12.146;2023-01-29T21:03:52;98215.63;;;-1.37;79.67
62025;BME280;47978;49.118;12.146;2023-01-29T21:07:54;98206.44;;;-1.43;80.59
62025;BME280;47978;49.118;12.146;2023-01-29T21:11:56;98197.50;;;-1.43;80.71
62025;BME280;47978;49.118;12.146;2023-01-29T21:15:58;98193.53;;;-1.47;81.15
62025;BME280;47978;49.118;12.146;2023-01-29T21:20:00;98194.59;;;-1.55;81.42
62025;BME280;47978;49.118;12.146;2023-01-29T21:24:01;98179.00;;;-1.73;81.58
62025;BME280;47978;49.118;12.146;2023-01-29T21:28:04;98181.06;;;-1.75;81.80
62025;BME280;47978;49.118;12.146;2023-01-29T21:32:06;98166.69;;;-1.89;82.39